sensor_id;sensor_type;location;lat;lon;timestamp;temperature;humidity
30385;DHT22;17181;51.002;4.096;2023-03-01T00:01:04;1.80;70.50
30385;DHT22;17181;51.002;4.096;2023-03-01T00:03:31;1.70;70.60
30385;DHT22;17181;51.002;4.096;2023-03-01T00:05:57;1.70;70.60
30385;DHT22;17181;51.002;4.096;2023-03-01T00:08:25;1.70;70.70
30385;DHT22;17181;51.002;4.096;2023-03-01T00:11:04;1.70;70.80
30385;DHT22;17181;51.002;4.096;2023-03-01T00:13:30;1.60;71.00
30385;DHT22;17181;51.002;4.096;2023-03-01T00:15:57;1.60;71.00
30385;DHT22;17181;51.002;4.096;2023-03-01T00:18:23;1.60;71.10
30385;DHT22;17181;51.002;4.096;2023-03-01T00:20:50;1.60;71.30
30385;DHT22;17181;51.002;4.096;2023-03-01T00:23:16;1.60;71.40
30385;DHT22;17181;51.002;4.096;2023-03-01T00:25:43;1.50;71.40
30385;DHT22;17181;51.002;4.096;2023-03-01T00:28:08;1.50;71.50
30385;DHT22;17181;51.002;4.096;2023-03-01T00:30:34;1.50;71.60
30385;DHT22;17181;51.002;4.096;2023-03-01T00:33:00;1.50;71.60
30385;DHT22;17181;51.002;4.096;2023-03-01T00:35:26;1.50;71.70
30385;DHT22;17181;51.002;4.096;2023-03-01T00:37:51;1.40;71.70
30385;DHT22;17181;51.002;4.096;2023-03-01T00:40:24;1.50;71.90
30385;DHT22;17181;51.002;4.096;2023-03-01T00:42:50;1.50;71.90
30385;DHT22;17181;51.002;4.096;2023-03-01T00:45:16;1.40;71.90
30385;DHT22;17181;51.002;4.096;2023-03-01T00:47:42;1.40;72.10
30385;DHT22;17181;51.002;4.096;2023-03-01T00:50:08;1.40;72.20
30385;DHT22;17181;51.002;4.096;2023-03-01T00:52:34;1.40;72.30
30385;DHT22;17181;51.002;4.096;2023-03-01T00:55:00;1.40;72.30
30385;DHT22;17181;51.002;4.096;2023-03-01T00:57:26;1.30;72.30
30385;DHT22;17181;51.002;4.096;2023-03-01T00:59:52;1.40;72.50
30385;DHT22;17181;51.002;4.096;2023-03-01T01:02:19;1.30;72.50
30385;DHT22;17181;51.002;4.096;2023-03-01T01:04:45;1.20;72.60
30385;DHT22;17181;51.002;4.096;2023-03-01T01:07:11;1.30;72.70
30385;DHT22;17181;51.002;4.096;2023-03-01T01:09:38;1.30;72.90
30385;DHT22;17181;51.002;4.096;2023-03-01T01:12:04;1.20;72.90
30385;DHT22;17181;51.002;4.096;2023-03-01T01:14:30;1.20;72.90
30385;DHT22;17181;51.002;4.096;2023-03-01T01:16:55;1.20;73.00
30385;DHT22;17181;51.002;4.096;2023-03-01T01:19:23;1.10;73.00
30385;DHT22;17181;51.002;4.096;2023-03-01T01:21:50;1.20;73.20
30385;DHT22;17181;51.002;4.096;2023-03-01T01:24:16;1.10;73.30
30385;DHT22;17181;51.002;4.096;2023-03-01T01:26:42;1.10;73.50
30385;DHT22;17181;51.002;4.096;2023-03-01T01:29:08;1.10;73.60
30385;DHT22;17181;51.002;4.096;2023-03-01T01:31:35;1.10;73.70
30385;DHT22;17181;51.002;4.096;2023-03-01T01:34:03;1.10;73.80
30385;DHT22;17181;51.002;4.096;2023-03-01T01:36:30;1.10;73.80
30385;DHT22;17181;51.002;4.096;2023-03-01T01:38:56;1.10;73.90
30385;DHT22;17181;51.002;4.096;2023-03-01T01:41:23;1.00;74.00
30385;DHT22;17181;51.002;4.096;2023-03-01T01:44:20;1.10;74.30
30385;DHT22;17181;51.002;4.096;2023-03-01T01:49:40;1.00;74.60
30385;DHT22;17181;51.002;4.096;2023-03-01T01:55:00;1.00;74.80
30385;DHT22;17181;51.002;4.096;2023-03-01T01:57:43;1.00;74.90
30385;DHT22;17181;51.002;4.096;2023-03-01T02:00:15;1.00;75.20
30385;DHT22;17181;51.002;4.096;2023-03-01T02:02:45;1.10;75.20
30385;DHT22;17181;51.002;4.096;2023-03-01T02:05:20;1.00;75.30
30385;DHT22;17181;51.002;4.096;2023-03-01T02:07:50;1.00;75.50
30385;DHT22;17181;51.002;4.096;2023-03-01T02:10:20;1.00;75.50
30385;DHT22;17181;51.002;4.096;2023-03-01T02:12:46;1.00;75.60
30385;DHT22;17181;51.002;4.096;2023-03-01T02:15:12;1.00;75.70
30385;DHT22;17181;51.002;4.096;2023-03-01T02:17:39;1.00;75.80
30385;DHT22;17181;51.002;4.096;2023-03-01T02:20:15;1.00;75.90
30385;DHT22;17181;51.002;4.096;2023-03-01T02:22:44;1.00;75.90
30385;DHT22;17181;51.002;4.096;2023-03-01T02:25:38;1.00;75.90
30385;DHT22;17181;51.002;4.096;2023-03-01T02:30:46;0.90;76.00
30385;DHT22;17181;51.002;4.096;2023-03-01T02:33:33;0.90;76.00
30385;DHT22;17181;51.002;4.096;2023-03-01T02:36:08;0.90;76.10
30385;DHT22;17181;51.002;4.096;2023-03-01T02:38:35;0.80;76.10
30385;DHT22;17181;51.002;4.096;2023-03-01T02:41:02;0.90;76.20
30385;DHT22;17181;51.002;4.096;2023-03-01T02:43:31;0.80;76.30
30385;DHT22;17181;51.002;4.096;2023-03-01T02:46:01;0.80;76.40
30385;DHT22;17181;51.002;4.096;2023-03-01T02:48:28;0.80;76.40
30385;DHT22;17181;51.002;4.096;2023-03-01T02:53:45;0.70;76.70
30385;DHT22;17181;51.002;4.096;2023-03-01T02:56:15;0.70;76.70
30385;DHT22;17181;51.002;4.096;2023-03-01T02:58:42;0.70;76.80
30385;DHT22;17181;51.002;4.096;2023-03-01T03:01:12;0.80;77.10
30385;DHT22;17181;51.002;4.096;2023-03-01T03:03:40;0.70;77.30
30385;DHT22;17181;51.002;4.096;2023-03-01T03:06:07;0.70;78.30
30385;DHT22;17181;51.002;4.096;2023-03-01T03:08:33;0.70;77.70
30385;DHT22;17181;51.002;4.096;2023-03-01T03:10:59;0.80;78.00
30385;DHT22;17181;51.002;4.096;2023-03-01T03:13:25;0.70;77.90
30385;DHT22;17181;51.002;4.096;2023-03-01T03:15:55;0.70;78.10
30385;DHT22;17181;51.002;4.096;2023-03-01T03:18:22;0.70;78.20
30385;DHT22;17181;51.002;4.096;2023-03-01T03:20:48;0.70;78.30
30385;DHT22;17181;51.002;4.096;2023-03-01T03:23:19;0.70;78.40
30385;DHT22;17181;51.002;4.096;2023-03-01T03:25:47;0.70;78.50
30385;DHT22;17181;51.002;4.096;2023-03-01T03:28:13;0.60;78.60
30385;DHT22;17181;51.002;4.096;2023-03-01T03:30:40;0.60;78.70
30385;DHT22;17181;51.002;4.096;2023-03-01T03:33:06;0.70;79.60
30385;DHT22;17181;51.002;4.096;2023-03-01T03:35:38;0.60;79.00
30385;DHT22;17181;51.002;4.096;2023-03-01T03:38:06;0.70;79.20
30385;DHT22;17181;51.002;4.096;2023-03-01T03:40:39;0.60;79.20
30385;DHT22;17181;51.002;4.096;2023-03-01T03:43:17;0.60;79.50
30385;DHT22;17181;51.002;4.096;2023-03-01T03:45:48;0.60;79.70
30385;DHT22;17181;51.002;4.096;2023-03-01T03:48:14;0.60;80.00
30385;DHT22;17181;51.002;4.096;2023-03-01T03:50:41;0.60;80.20
30385;DHT22;17181;51.002;4.096;2023-03-01T03:53:11;0.50;80.30
30385;DHT22;17181;51.002;4.096;2023-03-01T03:55:37;0.50;80.60
30385;DHT22;17181;51.002;4.096;2023-03-01T03:58:09;0.60;80.80
30385;DHT22;17181;51.002;4.096;2023-03-01T04:00:43;0.60;81.80
30385;DHT22;17181;51.002;4.096;2023-03-01T04:03:10;0.60;81.30
30385;DHT22;17181;51.002;4.096;2023-03-01T04:05:38;0.60;81.50
30385;DHT22;17181;51.002;4.096;2023-03-01T04:08:04;0.60;81.50
30385;DHT22;17181;51.002;4.096;2023-03-01T04:10:40;0.60;81.60
30385;DHT22;17181;51.002;4.096;2023-03-01T04:13:09;0.60;81.60
30385;DHT22;17181;51.002;4.096;2023-03-01T04:15:36;0.60;81.60
30385;DHT22;17181;51.002;4.096;2023-03-01T04:18:02;0.60;81.70
30385;DHT22;17181;51.002;4.096;2023-03-01T04:20:30;0.60;81.70
30385;DHT22;17181;51.002;4.096;2023-03-01T04:22:59;0.50;81.80
30385;DHT22;17181;51.002;4.096;2023-03-01T04:25:25;0.50;81.90
30385;DHT22;17181;51.002;4.096;2023-03-01T04:27:51;0.50;82.00
30385;DHT22;17181;51.002;4.096;2023-03-01T04:30:17;0.50;82.10
30385;DHT22;17181;51.002;4.096;2023-03-01T04:32:43;0.50;82.20
30385;DHT22;17181;51.002;4.096;2023-03-01T04:35:09;0.40;82.30
30385;DHT22;17181;51.002;4.096;2023-03-01T04:37:35;0.40;82.40
30385;DHT22;17181;51.002;4.096;2023-03-01T04:40:03;0.40;82.50
30385;DHT22;17181;51.002;4.096;2023-03-01T04:42:41;0.40;82.60
30385;DHT22;17181;51.002;4.096;2023-03-01T04:45:08;0.40;82.60
30385;DHT22;17181;51.002;4.096;2023-03-01T04:47:43;0.30;82.70
30385;DHT22;17181;51.002;4.096;2023-03-01T04:50:11;0.30;83.60
30385;DHT22;17181;51.002;4.096;2023-03-01T04:52:37;0.30;83.00
30385;DHT22;17181;51.002;4.096;2023-03-01T04:55:03;0.30;83.10
30385;DHT22;17181;51.002;4.096;2023-03-01T04:57:30;0.30;83.20
30385;DHT22;17181;51.002;4.096;2023-03-01T04:59:55;0.30;84.10
30385;DHT22;17181;51.002;4.096;2023-03-01T05:02:21;0.30;83.50
30385;DHT22;17181;51.002;4.096;2023-03-01T05:04:47;0.30;83.60
30385;DHT22;17181;51.002;4.096;2023-03-01T05:07:12;0.20;83.70
30385;DHT22;17181;51.002;4.096;2023-03-01T05:09:48;0.20;83.90
30385;DHT22;17181;51.002;4.096;2023-03-01T05:12:14;0.30;84.10
30385;DHT22;17181;51.002;4.096;2023-03-01T05:14:41;0.20;84.10
30385;DHT22;17181;51.002;4.096;2023-03-01T05:17:07;0.20;84.20
30385;DHT22;17181;51.002;4.096;2023-03-01T05:19:33;0.20;84.30
30385;DHT22;17181;51.002;4.096;2023-03-01T05:21:59;0.20;84.40
30385;DHT22;17181;51.002;4.096;2023-03-01T05:24:33;0.20;84.50
30385;DHT22;17181;51.002;4.096;2023-03-01T05:27:00;0.10;84.40
30385;DHT22;17181;51.002;4.096;2023-03-01T05:29:28;0.10;84.50
30385;DHT22;17181;51.002;4.096;2023-03-01T05:31:56;0.10;84.50
30385;DHT22;17181;51.002;4.096;2023-03-01T05:34:32;0.10;84.50
30385;DHT22;17181;51.002;4.096;2023-03-01T05:36:59;0.10;84.60
30385;DHT22;17181;51.002;4.096;2023-03-01T05:39:26;0.00;84.60
30385;DHT22;17181;51.002;4.096;2023-03-01T05:41:58;0.00;84.60
30385;DHT22;17181;51.002;4.096;2023-03-01T05:44:25;0.00;84.70
30385;DHT22;17181;51.002;4.096;2023-03-01T05:46:52;0.00;84.70
30385;DHT22;17181;51.002;4.096;2023-03-01T05:49:18;0.00;84.80
30385;DHT22;17181;51.002;4.096;2023-03-01T05:51:48;0.00;85.00
30385;DHT22;17181;51.002;4.096;2023-03-01T05:54:14;0.00;85.10
30385;DHT22;17181;51.002;4.096;2023-03-01T05:56:40;0.00;85.20
30385;DHT22;17181;51.002;4.096;2023-03-01T05:59:06;0.00;85.30
30385;DHT22;17181;51.002;4.096;2023-03-01T06:01:33;0.00;85.40
30385;DHT22;17181;51.002;4.096;2023-03-01T06:03:59;0.00;85.50
30385;DHT22;17181;51.002;4.096;2023-03-01T06:06:25;-0.10;85.50
30385;DHT22;17181;51.002;4.096;2023-03-01T06:08:51;-0.10;85.60
30385;DHT22;17181;51.002;4.096;2023-03-01T06:11:18;-0.10;85.70
30385;DHT22;17181;51.002;4.096;2023-03-01T06:13:44;-0.10;85.70
30385;DHT22;17181;51.002;4.096;2023-03-01T06:16:10;-0.10;86.60
30385;DHT22;17181;51.002;4.096;2023-03-01T06:18:37;-0.10;85.90
30385;DHT22;17181;51.002;4.096;2023-03-01T06:21:04;-0.10;86.00
30385;DHT22;17181;51.002;4.096;2023-03-01T06:23:30;-0.20;86.00
30385;DHT22;17181;51.002;4.096;2023-03-01T06:25:56;-0.10;86.10
30385;DHT22;17181;51.002;4.096;2023-03-01T06:28:22;-0.20;86.10
30385;DHT22;17181;51.002;4.096;2023-03-01T06:30:49;-0.20;86.20
30385;DHT22;17181;51.002;4.096;2023-03-01T06:33:15;-0.20;86.20
30385;DHT22;17181;51.002;4.096;2023-03-01T06:35:40;-0.30;86.20
30385;DHT22;17181;51.002;4.096;2023-03-01T06:38:07;-0.30;87.00
30385;DHT22;17181;51.002;4.096;2023-03-01T06:40:33;-0.30;86.40
30385;DHT22;17181;51.002;4.096;2023-03-01T06:43:01;-0.30;86.50
30385;DHT22;17181;51.002;4.096;2023-03-01T06:45:27;-0.30;86.70
30385;DHT22;17181;51.002;4.096;2023-03-01T06:47:52;-0.30;86.80
30385;DHT22;17181;51.002;4.096;2023-03-01T06:50:18;-0.20;87.00
30385;DHT22;17181;51.002;4.096;2023-03-01T06:52:44;-0.20;87.80
30385;DHT22;17181;51.002;4.096;2023-03-01T06:55:12;-0.10;87.30
30385;DHT22;17181;51.002;4.096;2023-03-01T06:57:38;-0.10;87.30
30385;DHT22;17181;51.002;4.096;2023-03-01T07:00:04;-0.10;87.30
30385;DHT22;17181;51.002;4.096;2023-03-01T07:02:30;-0.10;87.40
30385;DHT22;17181;51.002;4.096;2023-03-01T07:04:56;-0.10;87.50
30385;DHT22;17181;51.002;4.096;2023-03-01T07:07:22;-0.10;87.60
30385;DHT22;17181;51.002;4.096;2023-03-01T07:09:49;-0.10;87.70
30385;DHT22;17181;51.002;4.096;2023-03-01T07:12:15;0.00;88.50
30385;DHT22;17181;51.002;4.096;2023-03-01T07:14:41;0.00;87.90
30385;DHT22;17181;51.002;4.096;2023-03-01T07:17:09;0.10;88.20
30385;DHT22;17181;51.002;4.096;2023-03-01T07:19:34;0.10;88.20
30385;DHT22;17181;51.002;4.096;2023-03-01T07:22:00;0.10;88.30
30385;DHT22;17181;51.002;4.096;2023-03-01T07:24:26;0.20;88.40
30385;DHT22;17181;51.002;4.096;2023-03-01T07:26:52;0.20;88.30
30385;DHT22;17181;51.002;4.096;2023-03-01T07:29:19;0.20;88.40
30385;DHT22;17181;51.002;4.096;2023-03-01T07:31:45;0.30;88.60
30385;DHT22;17181;51.002;4.096;2023-03-01T07:34:10;0.30;88.70
30385;DHT22;17181;51.002;4.096;2023-03-01T07:36:37;0.40;88.90
30385;DHT22;17181;51.002;4.096;2023-03-01T07:39:05;0.40;88.90
30385;DHT22;17181;51.002;4.096;2023-03-01T07:41:30;0.50;89.10
30385;DHT22;17181;51.002;4.096;2023-03-01T07:43:56;0.60;89.40
30385;DHT22;17181;51.002;4.096;2023-03-01T07:46:22;0.60;89.70
30385;DHT22;17181;51.002;4.096;2023-03-01T07:48:47;0.70;89.90
30385;DHT22;17181;51.002;4.096;2023-03-01T07:51:13;0.80;90.10
30385;DHT22;17181;51.002;4.096;2023-03-01T07:53:39;0.80;90.10
30385;DHT22;17181;51.002;4.096;2023-03-01T07:56:10;0.90;90.30
30385;DHT22;17181;51.002;4.096;2023-03-01T07:58:38;1.00;90.40
30385;DHT22;17181;51.002;4.096;2023-03-01T08:01:05;1.10;90.50
30385;DHT22;17181;51.002;4.096;2023-03-01T08:03:31;1.20;90.50
30385;DHT22;17181;51.002;4.096;2023-03-01T08:05:59;1.30;90.50
30385;DHT22;17181;51.002;4.096;2023-03-01T08:08:25;1.40;90.60
30385;DHT22;17181;51.002;4.096;2023-03-01T08:10:51;1.50;90.60
30385;DHT22;17181;51.002;4.096;2023-03-01T08:13:17;1.50;90.70
30385;DHT22;17181;51.002;4.096;2023-03-01T08:15:48;1.60;90.70
30385;DHT22;17181;51.002;4.096;2023-03-01T08:18:15;1.70;90.70
30385;DHT22;17181;51.002;4.096;2023-03-01T08:20:41;1.80;90.70
30385;DHT22;17181;51.002;4.096;2023-03-01T08:23:07;1.80;90.70
30385;DHT22;17181;51.002;4.096;2023-03-01T08:25:32;1.90;90.70
30385;DHT22;17181;51.002;4.096;2023-03-01T08:27:58;2.00;90.80
30385;DHT22;17181;51.002;4.096;2023-03-01T08:30:25;2.10;90.70
30385;DHT22;17181;51.002;4.096;2023-03-01T08:32:51;2.20;90.80
30385;DHT22;17181;51.002;4.096;2023-03-01T08:35:18;2.20;90.70
30385;DHT22;17181;51.002;4.096;2023-03-01T08:37:44;2.30;90.70
30385;DHT22;17181;51.002;4.096;2023-03-01T08:40:11;2.40;90.70
30385;DHT22;17181;51.002;4.096;2023-03-01T08:42:42;2.40;90.70
30385;DHT22;17181;51.002;4.096;2023-03-01T08:45:11;2.50;90.70
30385;DHT22;17181;51.002;4.096;2023-03-01T08:47:38;2.60;90.70
30385;DHT22;17181;51.002;4.096;2023-03-01T08:50:05;2.70;90.70
30385;DHT22;17181;51.002;4.096;2023-03-01T08:52:32;2.70;90.60
30385;DHT22;17181;51.002;4.096;2023-03-01T08:54:58;2.90;90.60
30385;DHT22;17181;51.002;4.096;2023-03-01T08:57:27;3.00;90.60
30385;DHT22;17181;51.002;4.096;2023-03-01T08:59:53;3.00;90.60
30385;DHT22;17181;51.002;4.096;2023-03-01T09:02:22;3.00;90.50
30385;DHT22;17181;51.002;4.096;2023-03-01T09:04:48;3.10;90.40
30385;DHT22;17181;51.002;4.096;2023-03-01T09:07:13;3.20;90.40
30385;DHT22;17181;51.002;4.096;2023-03-01T09:09:39;3.20;90.40
30385;DHT22;17181;51.002;4.096;2023-03-01T09:12:05;3.30;90.20
30385;DHT22;17181;51.002;4.096;2023-03-01T09:14:31;3.40;90.20
30385;DHT22;17181;51.002;4.096;2023-03-01T09:16:57;3.50;90.20
30385;DHT22;17181;51.002;4.096;2023-03-01T09:19:23;3.50;90.10
30385;DHT22;17181;51.002;4.096;2023-03-01T09:21:49;3.50;90.10
30385;DHT22;17181;51.002;4.096;2023-03-01T09:24:22;3.60;90.00
30385;DHT22;17181;51.002;4.096;2023-03-01T09:26:49;3.70;90.00
30385;DHT22;17181;51.002;4.096;2023-03-01T09:29:16;3.80;90.00
30385;DHT22;17181;51.002;4.096;2023-03-01T09:31:42;3.90;89.80
30385;DHT22;17181;51.002;4.096;2023-03-01T09:34:08;3.90;89.20
30385;DHT22;17181;51.002;4.096;2023-03-01T09:36:35;3.90;88.90
30385;DHT22;17181;51.002;4.096;2023-03-01T09:39:01;4.00;88.90
30385;DHT22;17181;51.002;4.096;2023-03-01T09:45:00;4.20;88.60
30385;DHT22;17181;51.002;4.096;2023-03-01T09:47:00;4.30;88.40
30385;DHT22;17181;51.002;4.096;2023-03-01T09:49:33;4.40;88.20
30385;DHT22;17181;51.002;4.096;2023-03-01T09:52:09;4.50;88.00
30385;DHT22;17181;51.002;4.096;2023-03-01T09:54:38;4.50;86.90
30385;DHT22;17181;51.002;4.096;2023-03-01T09:57:19;4.60;86.70
30385;DHT22;17181;51.002;4.096;2023-03-01T10:02:49;4.70;86.50
30385;DHT22;17181;51.002;4.096;2023-03-01T10:08:14;4.80;85.70
30385;DHT22;17181;51.002;4.096;2023-03-01T10:10:46;4.80;85.20
30385;DHT22;17181;51.002;4.096;2023-03-01T10:16:27;5.00;85.10
30385;DHT22;17181;51.002;4.096;2023-03-01T10:18:59;5.00;84.90
30385;DHT22;17181;51.002;4.096;2023-03-01T10:21:27;5.10;85.00
30385;DHT22;17181;51.002;4.096;2023-03-01T10:24:05;5.20;84.80
30385;DHT22;17181;51.002;4.096;2023-03-01T10:26:56;5.20;83.80
30385;DHT22;17181;51.002;4.096;2023-03-01T10:29:42;5.30;83.60
30385;DHT22;17181;51.002;4.096;2023-03-01T10:32:09;5.30;83.00
30385;DHT22;17181;51.002;4.096;2023-03-01T10:34:37;5.40;83.00
30385;DHT22;17181;51.002;4.096;2023-03-01T10:37:15;5.50;82.70
30385;DHT22;17181;51.002;4.096;2023-03-01T10:40:00;5.50;82.20
30385;DHT22;17181;51.002;4.096;2023-03-01T10:42:36;5.50;81.40
30385;DHT22;17181;51.002;4.096;2023-03-01T10:50:47;5.80;82.00
30385;DHT22;17181;51.002;4.096;2023-03-01T10:58:35;6.10;80.10
30385;DHT22;17181;51.002;4.096;2023-03-01T11:01:04;6.10;79.70
30385;DHT22;17181;51.002;4.096;2023-03-01T11:03:36;6.10;78.70
30385;DHT22;17181;51.002;4.096;2023-03-01T11:13:35;6.30;78.80
30385;DHT22;17181;51.002;4.096;2023-03-01T11:16:09;6.40;78.70
30385;DHT22;17181;51.002;4.096;2023-03-01T11:18:37;6.40;77.90
30385;DHT22;17181;51.002;4.096;2023-03-01T11:21:03;6.40;77.80
30385;DHT22;17181;51.002;4.096;2023-03-01T11:23:31;6.40;77.50
30385;DHT22;17181;51.002;4.096;2023-03-01T11:26:05;6.40;77.30
30385;DHT22;17181;51.002;4.096;2023-03-01T11:28:36;6.50;77.20
30385;DHT22;17181;51.002;4.096;2023-03-01T11:31:06;6.50;76.10
30385;DHT22;17181;51.002;4.096;2023-03-01T11:33:40;6.60;76.30
30385;DHT22;17181;51.002;4.096;2023-03-01T11:38:55;6.80;76.90
30385;DHT22;17181;51.002;4.096;2023-03-01T11:41:26;6.80;75.40
30385;DHT22;17181;51.002;4.096;2023-03-01T11:44:03;6.80;75.40
30385;DHT22;17181;51.002;4.096;2023-03-01T11:54:52;7.10;75.40
30385;DHT22;17181;51.002;4.096;2023-03-01T12:17:32;7.60;73.20
30385;DHT22;17181;51.002;4.096;2023-03-01T12:20:19;7.70;73.00
30385;DHT22;17181;51.002;4.096;2023-03-01T12:22:53;7.80;73.40
30385;DHT22;17181;51.002;4.096;2023-03-01T12:25:38;7.80;72.70
30385;DHT22;17181;51.002;4.096;2023-03-01T12:31:08;7.90;71.80
30385;DHT22;17181;51.002;4.096;2023-03-01T12:42:31;8.10;72.10
30385;DHT22;17181;51.002;4.096;2023-03-01T12:50:50;8.10;71.10
30385;DHT22;17181;51.002;4.096;2023-03-01T12:56:00;8.20;71.10
30385;DHT22;17181;51.002;4.096;2023-03-01T13:17:54;8.90;69.70
30385;DHT22;17181;51.002;4.096;2023-03-01T13:20:25;8.90;69.80
30385;DHT22;17181;51.002;4.096;2023-03-01T13:23:11;8.90;69.60
30385;DHT22;17181;51.002;4.096;2023-03-01T13:26:17;9.00;69.40
30385;DHT22;17181;51.002;4.096;2023-03-01T13:34:00;9.20;68.00
30385;DHT22;17181;51.002;4.096;2023-03-01T13:39:38;9.20;67.40
30385;DHT22;17181;51.002;4.096;2023-03-01T13:44:52;9.30;67.40
30385;DHT22;17181;51.002;4.096;2023-03-01T13:47:18;9.30;67.60
30385;DHT22;17181;51.002;4.096;2023-03-01T13:49:51;9.30;67.20
30385;DHT22;17181;51.002;4.096;2023-03-01T13:52:43;9.30;66.70
30385;DHT22;17181;51.002;4.096;2023-03-01T13:58:03;9.20;66.00
30385;DHT22;17181;51.002;4.096;2023-03-01T14:00:38;9.20;66.40
30385;DHT22;17181;51.002;4.096;2023-03-01T14:05:35;9.30;66.50
30385;DHT22;17181;51.002;4.096;2023-03-01T14:08:03;9.40;67.00
30385;DHT22;17181;51.002;4.096;2023-03-01T14:10:44;9.70;68.50
30385;DHT22;17181;51.002;4.096;2023-03-01T14:16:20;11.80;66.70
30385;DHT22;17181;51.002;4.096;2023-03-01T14:19:18;12.70;65.40
30385;DHT22;17181;51.002;4.096;2023-03-01T14:21:47;13.60;63.30
30385;DHT22;17181;51.002;4.096;2023-03-01T14:24:20;14.00;62.60
30385;DHT22;17181;51.002;4.096;2023-03-01T14:26:46;14.40;63.30
30385;DHT22;17181;51.002;4.096;2023-03-01T14:29:39;14.90;61.10
30385;DHT22;17181;51.002;4.096;2023-03-01T14:34:44;15.40;57.90
30385;DHT22;17181;51.002;4.096;2023-03-01T14:37:31;15.60;57.60
30385;DHT22;17181;51.002;4.096;2023-03-01T14:40:02;15.90;57.40
30385;DHT22;17181;51.002;4.096;2023-03-01T14:42:33;16.00;56.40
30385;DHT22;17181;51.002;4.096;2023-03-01T14:45:04;16.10;56.50
30385;DHT22;17181;51.002;4.096;2023-03-01T14:47:44;16.40;55.20
30385;DHT22;17181;51.002;4.096;2023-03-01T14:50:33;16.60;55.30
30385;DHT22;17181;51.002;4.096;2023-03-01T14:53:27;16.80;54.90
30385;DHT22;17181;51.002;4.096;2023-03-01T14:55:56;17.10;54.90
30385;DHT22;17181;51.002;4.096;2023-03-01T14:58:28;17.30;53.70
30385;DHT22;17181;51.002;4.096;2023-03-01T15:01:28;17.40;53.30
30385;DHT22;17181;51.002;4.096;2023-03-01T15:03:56;17.70;53.20
30385;DHT22;17181;51.002;4.096;2023-03-01T15:06:25;17.80;52.00
30385;DHT22;17181;51.002;4.096;2023-03-01T15:08:54;17.90;52.00
30385;DHT22;17181;51.002;4.096;2023-03-01T15:11:30;17.80;50.60
30385;DHT22;17181;51.002;4.096;2023-03-01T15:13:59;17.70;50.30
30385;DHT22;17181;51.002;4.096;2023-03-01T15:16:42;17.60;49.60
30385;DHT22;17181;51.002;4.096;2023-03-01T15:19:18;17.50;49.50
30385;DHT22;17181;51.002;4.096;2023-03-01T15:21:47;17.60;49.30
30385;DHT22;17181;51.002;4.096;2023-03-01T15:24:16;17.60;49.20
30385;DHT22;17181;51.002;4.096;2023-03-01T15:26:57;17.60;48.70
30385;DHT22;17181;51.002;4.096;2023-03-01T15:29:26;17.60;47.80
30385;DHT22;17181;51.002;4.096;2023-03-01T15:32:04;17.60;48.20
30385;DHT22;17181;51.002;4.096;2023-03-01T15:34:35;17.60;47.60
30385;DHT22;17181;51.002;4.096;2023-03-01T15:37:46;17.50;46.30
30385;DHT22;17181;51.002;4.096;2023-03-01T15:40:29;17.50;46.50
30385;DHT22;17181;51.002;4.096;2023-03-01T15:43:04;17.50;46.50
30385;DHT22;17181;51.002;4.096;2023-03-01T15:45:33;17.50;46.50
30385;DHT22;17181;51.002;4.096;2023-03-01T15:48:19;17.40;46.40
30385;DHT22;17181;51.002;4.096;2023-03-01T15:50:59;17.40;46.80
30385;DHT22;17181;51.002;4.096;2023-03-01T15:53:38;17.50;45.90
30385;DHT22;17181;51.002;4.096;2023-03-01T15:56:05;17.50;46.20
30385;DHT22;17181;51.002;4.096;2023-03-01T15:58:33;17.50;46.40
30385;DHT22;17181;51.002;4.096;2023-03-01T16:01:00;17.60;46.00
30385;DHT22;17181;51.002;4.096;2023-03-01T16:03:28;17.60;45.70
30385;DHT22;17181;51.002;4.096;2023-03-01T16:05:57;17.50;45.10
30385;DHT22;17181;51.002;4.096;2023-03-01T16:08:25;17.40;45.50
30385;DHT22;17181;51.002;4.096;2023-03-01T16:10:53;17.30;45.30
30385;DHT22;17181;51.002;4.096;2023-03-01T16:13:22;17.30;45.00
30385;DHT22;17181;51.002;4.096;2023-03-01T16:15:51;17.20;44.90
30385;DHT22;17181;51.002;4.096;2023-03-01T16:18:17;16.90;44.80
30385;DHT22;17181;51.002;4.096;2023-03-01T16:20:44;16.70;44.90
30385;DHT22;17181;51.002;4.096;2023-03-01T16:23:11;16.40;44.90
30385;DHT22;17181;51.002;4.096;2023-03-01T16:25:37;16.10;45.00
30385;DHT22;17181;51.002;4.096;2023-03-01T16:28:03;15.90;45.50
30385;DHT22;17181;51.002;4.096;2023-03-01T16:30:30;15.80;46.00
30385;DHT22;17181;51.002;4.096;2023-03-01T16:32:56;15.70;46.10
30385;DHT22;17181;51.002;4.096;2023-03-01T16:35:22;15.40;45.90
30385;DHT22;17181;51.002;4.096;2023-03-01T16:37:49;15.20;45.90
30385;DHT22;17181;51.002;4.096;2023-03-01T16:40:27;14.70;46.80
30385;DHT22;17181;51.002;4.096;2023-03-01T16:42:54;14.30;46.50
30385;DHT22;17181;51.002;4.096;2023-03-01T16:45:33;13.80;46.90
30385;DHT22;17181;51.002;4.096;2023-03-01T16:48:02;13.30;47.20
30385;DHT22;17181;51.002;4.096;2023-03-01T16:50:31;12.90;47.60
30385;DHT22;17181;51.002;4.096;2023-03-01T16:53:05;12.50;48.10
30385;DHT22;17181;51.002;4.096;2023-03-01T16:55:35;12.00;48.50
30385;DHT22;17181;51.002;4.096;2023-03-01T16:58:03;11.60;49.00
30385;DHT22;17181;51.002;4.096;2023-03-01T17:00:33;11.20;49.30
30385;DHT22;17181;51.002;4.096;2023-03-01T17:03:01;10.90;49.70
30385;DHT22;17181;51.002;4.096;2023-03-01T17:05:27;10.60;50.10
30385;DHT22;17181;51.002;4.096;2023-03-01T17:08:17;10.30;50.50
30385;DHT22;17181;51.002;4.096;2023-03-01T17:10:45;10.00;50.90
30385;DHT22;17181;51.002;4.096;2023-03-01T17:13:15;9.80;51.90
30385;DHT22;17181;51.002;4.096;2023-03-01T17:15:41;9.60;51.40
30385;DHT22;17181;51.002;4.096;2023-03-01T17:18:09;9.40;51.70
30385;DHT22;17181;51.002;4.096;2023-03-01T17:20:36;9.30;52.00
30385;DHT22;17181;51.002;4.096;2023-03-01T17:23:03;9.10;52.20
30385;DHT22;17181;51.002;4.096;2023-03-01T17:25:31;9.00;52.60
30385;DHT22;17181;51.002;4.096;2023-03-01T17:28:03;8.80;53.00
30385;DHT22;17181;51.002;4.096;2023-03-01T17:30:30;8.70;53.10
30385;DHT22;17181;51.002;4.096;2023-03-01T17:32:57;8.50;53.20
30385;DHT22;17181;51.002;4.096;2023-03-01T17:35:23;8.40;53.50
30385;DHT22;17181;51.002;4.096;2023-03-01T17:37:52;8.30;54.10
30385;DHT22;17181;51.002;4.096;2023-03-01T17:40:22;8.20;54.20
30385;DHT22;17181;51.002;4.096;2023-03-01T17:42:52;8.10;54.70
30385;DHT22;17181;51.002;4.096;2023-03-01T17:45:20;8.00;55.00
30385;DHT22;17181;51.002;4.096;2023-03-01T17:47:48;7.90;55.10
30385;DHT22;17181;51.002;4.096;2023-03-01T17:50:16;7.80;55.30
30385;DHT22;17181;51.002;4.096;2023-03-01T17:52:42;7.70;55.50
30385;DHT22;17181;51.002;4.096;2023-03-01T17:55:10;7.60;55.50
30385;DHT22;17181;51.002;4.096;2023-03-01T17:57:39;7.50;55.90
30385;DHT22;17181;51.002;4.096;2023-03-01T18:00:10;7.50;55.90
30385;DHT22;17181;51.002;4.096;2023-03-01T18:02:40;7.40;56.00
30385;DHT22;17181;51.002;4.096;2023-03-01T18:05:07;7.30;56.40
30385;DHT22;17181;51.002;4.096;2023-03-01T18:07:38;7.30;56.60
30385;DHT22;17181;51.002;4.096;2023-03-01T18:10:06;7.20;56.80
30385;DHT22;17181;51.002;4.096;2023-03-01T18:12:33;7.10;56.90